createdAt,value
2022-10-04T00:00:29.091Z,9.91
2022-10-04T00:03:07.124Z,9.80
2022-10-04T00:05:34.275Z,9.76
2022-10-04T00:08:24.879Z,9.68
2022-10-04T00:11:03.182Z,9.62
2022-10-04T00:13:30.272Z,9.59
2022-10-04T00:15:56.873Z,9.58
2022-10-04T00:18:37.063Z,9.57
2022-10-04T00:21:05.470Z,9.59
2022-10-04T00:23:37.999Z,9.59
2022-10-04T00:26:05.999Z,9.65
2022-10-04T00:28:40.003Z,9.72
2022-10-04T00:31:17.523Z,9.73
2022-10-04T00:33:55.233Z,9.68
2022-10-04T00:36:24.551Z,9.65
2022-10-04T00:39:09.300Z,9.77
2022-10-04T00:41:41.809Z,9.81
2022-10-04T00:44:19.201Z,9.79
2022-10-04T00:46:48.573Z,9.84
2022-10-04T00:49:20.499Z,9.84
2022-10-04T00:51:54.825Z,9.84
2022-10-04T00:54:33.300Z,9.78
2022-10-04T00:57:07.690Z,9.75
2022-10-04T00:59:42.716Z,9.77
2022-10-04T01:02:17.265Z,9.89
2022-10-04T01:04:51.508Z,9.87
2022-10-04T01:07:32.922Z,9.83
2022-10-04T01:10:08.368Z,9.87
2022-10-04T01:12:49.599Z,9.89
2022-10-04T01:15:26.306Z,9.92
2022-10-04T01:18:20.516Z,9.97
2022-10-04T01:20:53.935Z,9.98
2022-10-04T01:23:37.746Z,9.97
2022-10-04T01:26:29.239Z,9.95
2022-10-04T01:29:16.327Z,9.86
2022-10-04T01:31:46.418Z,9.88
2022-10-04T01:34:33.408Z,9.87
2022-10-04T01:37:01.052Z,9.77
2022-10-04T01:39:28.945Z,9.73
2022-10-04T01:42:00.268Z,9.67
2022-10-04T01:44:45.513Z,9.59
2022-10-04T01:47:21.307Z,9.58
2022-10-04T01:49:49.412Z,9.63
2022-10-04T01:52:22.622Z,9.57
2022-10-04T01:54:59.573Z,9.67
2022-10-04T01:57:34.240Z,9.74
2022-10-04T02:00:07.809Z,9.85
2022-10-04T02:02:41.032Z,9.80
2022-10-04T02:05:12.900Z,9.79
2022-10-04T02:07:41.710Z,9.69
2022-10-04T02:10:15.735Z,9.68
2022-10-04T02:12:48.272Z,9.71
2022-10-04T02:15:16.235Z,9.77
2022-10-04T02:17:44.163Z,9.77
2022-10-04T02:20:15.954Z,9.75
2022-10-04T02:22:44.140Z,9.70
2022-10-04T02:25:11.671Z,9.63
2022-10-04T02:27:38.276Z,9.59
2022-10-04T02:30:11.047Z,9.61
2022-10-04T02:32:58.130Z,9.66
2022-10-04T02:35:27.778Z,9.73
2022-10-04T02:38:03.695Z,9.74
2022-10-04T02:40:40.721Z,9.77
2022-10-04T02:43:14.367Z,9.83
2022-10-04T02:46:08.530Z,9.86
2022-10-04T02:48:39.112Z,9.90
2022-10-04T02:51:19.997Z,9.93
2022-10-04T02:53:53.202Z,9.90
2022-10-04T02:56:20.885Z,9.85
2022-10-04T02:58:48.060Z,9.78
2022-10-04T03:01:26.807Z,9.76
2022-10-04T03:03:55.793Z,9.65
2022-10-04T03:06:26.429Z,9.56
2022-10-04T03:08:59.841Z,9.55
2022-10-04T03:11:31.725Z,9.56
2022-10-04T03:14:00.864Z,9.61
2022-10-04T03:16:27.550Z,9.62
2022-10-04T03:18:57.550Z,9.60
2022-10-04T03:21:25.734Z,9.59
2022-10-04T03:23:53.622Z,9.56
2022-10-04T03:26:36.529Z,9.49
2022-10-04T03:29:10.220Z,9.46
2022-10-04T03:31:48.917Z,9.34
2022-10-04T03:34:20.912Z,9.25
2022-10-04T03:36:50.101Z,9.24
2022-10-04T03:39:36.957Z,9.28
2022-10-04T03:42:31.893Z,9.30
2022-10-04T03:45:05.790Z,9.30
2022-10-04T03:47:35.969Z,9.27
2022-10-04T03:50:16.585Z,9.26
2022-10-04T03:52:50.787Z,9.23
2022-10-04T03:55:18.529Z,9.15
2022-10-04T03:57:45.148Z,9.18
2022-10-04T04:00:17.088Z,9.11
2022-10-04T04:03:02.126Z,9.11
2022-10-04T04:05:37.466Z,9.07
2022-10-04T04:08:28.942Z,9.01
2022-10-04T04:10:58.354Z,8.95
2022-10-04T04:13:54.427Z,8.86
2022-10-04T04:16:26.278Z,8.79
2022-10-04T04:18:55.425Z,8.73
2022-10-04T04:21:25.960Z,8.82
2022-10-04T04:24:23.740Z,8.90
2022-10-04T04:26:55.907Z,9.01
2022-10-04T04:29:45.120Z,9.11
2022-10-04T04:32:28.413Z,9.23
2022-10-04T04:35:00.790Z,9.19
2022-10-04T04:37:27.313Z,9.14
2022-10-04T04:39:56.649Z,9.10
2022-10-04T04:42:33.329Z,9.15
2022-10-04T04:45:19.223Z,9.14
2022-10-04T04:47:50.594Z,9.16
2022-10-04T04:50:26.008Z,9.17
2022-10-04T04:52:55.573Z,9.18
2022-10-04T04:56:03.303Z,9.18
2022-10-04T04:58:35.897Z,9.16
2022-10-04T05:01:25.952Z,9.14
2022-10-04T05:04:13.780Z,9.17
2022-10-04T05:06:42.791Z,9.25
2022-10-04T05:09:41.433Z,9.29
2022-10-04T05:12:17.714Z,9.25
2022-10-04T05:15:02.480Z,9.23
2022-10-04T05:17:34.838Z,9.22
2022-10-04T05:20:03.464Z,9.14
2022-10-04T05:22:31.401Z,9.00
2022-10-04T05:25:02.938Z,9.07
2022-10-04T05:27:39.673Z,8.98
2022-10-04T05:30:13.874Z,8.89
2022-10-04T05:33:01.001Z,8.81
2022-10-04T05:35:29.626Z,8.77
2022-10-04T05:37:58.822Z,8.76
2022-10-04T05:40:48.170Z,8.67
2022-10-04T05:43:35.618Z,8.64
2022-10-04T05:46:19.508Z,8.69
2022-10-04T05:48:52.657Z,8.78
2022-10-04T05:51:22.700Z,8.74
2022-10-04T05:53:50.602Z,8.76
2022-10-04T05:56:32.142Z,8.74
2022-10-04T05:59:23.881Z,8.77
2022-10-04T06:02:02.390Z,8.80
2022-10-04T06:04:28.892Z,8.77
2022-10-04T06:07:12.315Z,8.77
2022-10-04T06:09:54.349Z,8.79
2022-10-04T06:12:44.659Z,8.82
2022-10-04T06:15:23.250Z,8.90
2022-10-04T06:18:22.890Z,8.93
2022-10-04T06:21:03.350Z,8.90
2022-10-04T06:23:32.732Z,8.99
2022-10-04T06:26:13.260Z,9.08
2022-10-04T06:29:03.209Z,9.18
2022-10-04T06:31:58.642Z,9.21
2022-10-04T06:34:59.234Z,9.25
2022-10-04T06:37:53.898Z,9.36
2022-10-04T06:40:45.077Z,9.46
2022-10-04T06:43:23.533Z,9.55
2022-10-04T06:46:07.692Z,9.60
2022-10-04T06:48:56.613Z,9.73
2022-10-04T06:51:45.866Z,9.80
2022-10-04T06:54:32.426Z,9.87
2022-10-04T06:57:04.589Z,9.95
2022-10-04T06:59:49.534Z,10.04
2022-10-04T07:02:29.055Z,10.14
2022-10-04T07:05:09.879Z,10.25
2022-10-04T07:07:44.978Z,10.35
2022-10-04T07:10:32.793Z,10.41
2022-10-04T07:13:20.613Z,10.49
2022-10-04T07:16:02.189Z,10.56
2022-10-04T07:19:11.050Z,10.65
2022-10-04T07:22:16.253Z,10.72
2022-10-04T07:24:57.733Z,10.84
2022-10-04T07:27:32.352Z,10.94
2022-10-04T07:30:15.513Z,11.03
2022-10-04T07:32:48.042Z,11.18
2022-10-04T07:35:24.029Z,11.28
2022-10-04T07:38:09.711Z,11.43
2022-10-04T07:40:55.115Z,11.57
2022-10-04T07:43:29.463Z,11.66
2022-10-04T07:46:10.938Z,11.76
2022-10-04T07:48:41.165Z,11.87
2022-10-04T07:51:44.927Z,11.96
2022-10-04T07:54:38.981Z,12.05
2022-10-04T07:57:16.842Z,12.23
2022-10-04T08:00:03.692Z,12.36
2022-10-04T08:03:14.176Z,12.45
2022-10-04T08:05:46.627Z,12.51
2022-10-04T08:08:31.324Z,12.61
2022-10-04T08:11:17.420Z,12.63
2022-10-04T08:13:52.546Z,12.59
2022-10-04T08:16:19.048Z,12.58
2022-10-04T08:18:57.440Z,12.58
2022-10-04T08:21:36.841Z,12.62
2022-10-04T08:24:31.248Z,12.67
2022-10-04T08:27:23.373Z,12.67
2022-10-04T08:30:11.129Z,12.74
2022-10-04T08:33:01.718Z,12.88
2022-10-04T08:35:36.431Z,13.12
2022-10-04T08:38:16.821Z,13.25
2022-10-04T08:41:08.637Z,13.27
2022-10-04T08:43:37.839Z,13.28
2022-10-04T08:46:34.471Z,13.45
2022-10-04T08:49:09.797Z,13.85
2022-10-04T08:51:51.485Z,14.10
2022-10-04T08:54:40.348Z,14.52
2022-10-04T08:57:25.499Z,14.89
2022-10-04T09:00:10.609Z,15.31
2022-10-04T09:03:02.181Z,15.51
2022-10-04T09:05:40.722Z,15.88
2022-10-04T09:08:07.374Z,15.87
2022-10-04T09:10:40.353Z,15.72
2022-10-04T09:13:22.301Z,15.59
2022-10-04T09:15:51.687Z,15.69
2022-10-04T09:18:29.759Z,15.75
2022-10-04T09:21:17.130Z,15.62
2022-10-04T09:23:55.228Z,15.78
2022-10-04T09:26:41.139Z,15.87
2022-10-04T09:29:51.747Z,15.96
2022-10-04T09:32:43.307Z,16.16
2022-10-04T09:35:24.726Z,16.06
2022-10-04T09:37:57.009Z,16.51
2022-10-04T09:40:48.037Z,16.80
2022-10-04T09:43:48.487Z,16.69
2022-10-04T09:46:35.886Z,16.66
2022-10-04T09:49:08.322Z,16.46
2022-10-04T09:52:08.907Z,16.27
2022-10-04T09:54:44.761Z,16.17
2022-10-04T09:57:29.056Z,16.01
2022-10-04T10:00:10.144Z,15.81
2022-10-04T10:03:03.481Z,15.82
2022-10-04T10:05:46.215Z,15.81
2022-10-04T10:08:32.026Z,15.74
2022-10-04T10:11:33.300Z,15.99
2022-10-04T10:14:35.270Z,16.20
2022-10-04T10:17:37.297Z,17.09
2022-10-04T10:20:17.959Z,17.70
2022-10-04T10:23:16.567Z,17.84
2022-10-04T10:25:54.921Z,17.97
2022-10-04T10:28:51.933Z,18.20
2022-10-04T10:31:38.032Z,17.87
2022-10-04T10:34:36.505Z,18.03
2022-10-04T10:37:13.460Z,18.69
2022-10-04T10:40:03.089Z,19.22
2022-10-04T10:42:51.158Z,19.58
2022-10-04T10:45:17.649Z,20.00
2022-10-04T10:47:44.061Z,20.02
2022-10-04T10:50:33.675Z,19.81
2022-10-04T10:53:25.130Z,20.21
2022-10-04T10:56:13.044Z,20.03
2022-10-04T10:59:17.242Z,20.31
2022-10-04T11:02:04.968Z,19.69
2022-10-04T11:04:54.790Z,19.18
2022-10-04T11:07:52.134Z,18.69
2022-10-04T11:10:29.265Z,18.66
2022-10-04T11:13:30.907Z,19.27
2022-10-04T11:15:57.374Z,19.90
2022-10-04T11:18:45.372Z,20.55
2022-10-04T11:21:42.916Z,20.97
2022-10-04T11:24:24.833Z,21.12
2022-10-04T11:27:10.905Z,21.21
2022-10-04T11:29:51.129Z,21.61
2022-10-04T11:32:37.836Z,21.69
2022-10-04T11:35:19.534Z,21.74
2022-10-04T11:38:09.013Z,21.37
2022-10-04T11:40:44.466Z,21.61
2022-10-04T11:43:46.633Z,21.67
2022-10-04T11:46:22.257Z,21.95
2022-10-04T11:49:20.928Z,21.84
2022-10-04T11:51:58.706Z,21.78
2022-10-04T11:54:49.672Z,21.70
2022-10-04T11:57:40.384Z,22.07
2022-10-04T12:00:17.066Z,22.05
2022-10-04T12:02:50.233Z,21.85
2022-10-04T12:05:22.700Z,22.03
2022-10-04T12:07:50.546Z,22.10
2022-10-04T12:10:36.937Z,22.03
2022-10-04T12:13:42.437Z,22.15
2022-10-04T12:16:28.838Z,22.06
2022-10-04T12:19:31.660Z,22.07
2022-10-04T12:22:21.060Z,21.85
2022-10-04T12:24:57.989Z,22.07
2022-10-04T12:27:24.770Z,22.04
2022-10-04T12:30:13.308Z,21.75
2022-10-04T12:33:04.482Z,21.81
2022-10-04T12:35:54.091Z,21.64
2022-10-04T12:38:40.922Z,21.49
2022-10-04T12:41:12.018Z,21.43
2022-10-04T12:44:01.160Z,21.62
2022-10-04T12:46:46.848Z,21.90
2022-10-04T12:49:56.354Z,21.86
2022-10-04T12:52:27.198Z,21.66
2022-10-04T12:55:12.509Z,21.51
2022-10-04T12:58:06.107Z,21.51
2022-10-04T13:00:41.715Z,21.68
2022-10-04T13:03:25.112Z,21.84
2022-10-04T13:06:22.573Z,21.77
2022-10-04T13:08:59.054Z,21.80
2022-10-04T13:11:28.229Z,21.70
2022-10-04T13:14:25.916Z,21.50
2022-10-04T13:17:30.059Z,21.65
2022-10-04T13:20:28.695Z,21.67
2022-10-04T13:23:14.983Z,21.68
2022-10-04T13:25:58.850Z,21.61
2022-10-04T13:28:40.276Z,21.54
2022-10-04T13:31:15.905Z,21.43
2022-10-04T13:34:02.568Z,20.79
2022-10-04T13:37:12.425Z,20.86
2022-10-04T13:40:01.761Z,20.39
2022-10-04T13:43:05.972Z,20.43
2022-10-04T13:46:06.777Z,20.72
2022-10-04T13:49:14.798Z,20.89
2022-10-04T13:51:44.527Z,20.81
2022-10-04T13:54:53.757Z,20.48
2022-10-04T13:57:27.864Z,20.25
2022-10-04T14:00:04.968Z,20.13
2022-10-04T14:02:37.472Z,20.03
2022-10-04T14:05:41.366Z,19.85
2022-10-04T14:08:22.982Z,19.43
2022-10-04T14:11:01.245Z,19.16
2022-10-04T14:13:36.487Z,19.02
2022-10-04T14:16:24.357Z,18.83
2022-10-04T14:19:12.428Z,18.84
2022-10-04T14:22:00.176Z,18.89
2022-10-04T14:25:01.651Z,18.86
2022-10-04T14:27:46.522Z,18.83
2022-10-04T14:30:19.883Z,18.76
2022-10-04T14:33:13.669Z,18.77
2022-10-04T14:35:58.671Z,18.78
2022-10-04T14:38:37.492Z,18.75
2022-10-04T14:41:45.672Z,18.71
2022-10-04T14:44:20.626Z,18.65
2022-10-04T14:47:14.169Z,18.68
2022-10-04T14:50:08.422Z,18.60
2022-10-04T14:52:43.941Z,18.50
2022-10-04T14:55:26.194Z,18.40
2022-10-04T14:58:02.433Z,18.39
2022-10-04T15:01:11.303Z,18.28
2022-10-04T15:03:55.329Z,18.19
2022-10-04T15:06:49.363Z,18.13
2022-10-04T15:09:24.350Z,18.00
2022-10-04T15:15:12.103Z,17.88
2022-10-04T15:17:47.670Z,17.82
2022-10-04T15:20:20.222Z,17.78
2022-10-04T15:22:54.237Z,17.70
2022-10-04T15:25:41.678Z,17.66
2022-10-04T15:28:33.945Z,17.65
2022-10-04T15:31:18.997Z,17.68
2022-10-04T15:33:59.987Z,17.72
2022-10-04T15:36:32.457Z,17.75
2022-10-04T15:39:06.923Z,17.78
2022-10-04T15:41:33.345Z,17.79
2022-10-04T15:44:12.013Z,17.75
2022-10-04T15:47:10.071Z,17.67
2022-10-04T15:49:59.474Z,17.60
2022-10-04T15:52:51.851Z,17.56
2022-10-04T15:55:30.485Z,17.48
2022-10-04T15:58:37.248Z,17.41
2022-10-04T16:01:33.741Z,17.37
2022-10-04T16:04:25.549Z,17.32
2022-10-04T16:07:13.632Z,17.26
2022-10-04T16:09:55.100Z,17.21
2022-10-04T16:12:33.116Z,17.16
2022-10-04T16:15:20.819Z,17.13
2022-10-04T16:18:05.415Z,17.10
2022-10-04T16:20:50.921Z,17.10
2022-10-04T16:23:26.551Z,17.09
2022-10-04T16:25:56.119Z,17.06
2022-10-04T16:28:27.774Z,17.07
2022-10-04T16:31:21.192Z,17.09
2022-10-04T16:34:17.218Z,17.11
2022-10-04T16:36:59.751Z,17.09
2022-10-04T16:39:59.486Z,17.07
2022-10-04T16:42:45.423Z,17.04
2022-10-04T16:45:12.299Z,17.01
2022-10-04T16:47:53.639Z,16.97
2022-10-04T16:50:58.210Z,16.97
2022-10-04T16:53:39.910Z,16.95
2022-10-04T16:56:18.060Z,16.88
2022-10-04T16:59:02.558Z,16.84
2022-10-04T17:01:34.009Z,16.86
2022-10-04T17:04:03.546Z,16.84
2022-10-04T17:07:12.173Z,16.75
2022-10-04T17:09:49.288Z,16.75
2022-10-04T17:12:42.165Z,16.75
2022-10-04T17:15:14.587Z,16.69
2022-10-04T17:18:03.417Z,16.68
2022-10-04T17:20:42.260Z,16.66
2022-10-04T17:23:34.013Z,16.65
2022-10-04T17:26:21.992Z,16.66
2022-10-04T17:29:04.021Z,16.66
2022-10-04T17:31:50.203Z,16.65
2022-10-04T17:34:28.612Z,16.63
2022-10-04T17:37:02.911Z,16.59
2022-10-04T17:39:53.026Z,16.59
2022-10-04T17:42:29.207Z,16.58
2022-10-04T17:45:20.883Z,16.57
2022-10-04T17:48:29.887Z,16.55
2022-10-04T17:51:23.027Z,16.53
2022-10-04T17:54:19.210Z,16.60
2022-10-04T17:56:51.213Z,16.56
2022-10-04T17:59:30.672Z,16.55
2022-10-04T18:02:10.433Z,16.51
2022-10-04T18:04:45.699Z,16.48
2022-10-04T18:07:25.136Z,16.43
2022-10-04T18:10:24.517Z,16.40
2022-10-04T18:13:06.668Z,16.38
2022-10-04T18:15:43.706Z,16.33
2022-10-04T18:18:10.295Z,16.27
2022-10-04T18:20:45.286Z,16.19
2022-10-04T18:23:28.843Z,16.12
2022-10-04T18:25:59.725Z,16.10
2022-10-04T18:28:26.353Z,16.05
2022-10-04T18:31:14.896Z,16.01
2022-10-04T18:33:44.282Z,15.95
2022-10-04T18:36:31.225Z,15.88
2022-10-04T18:39:11.691Z,15.83
2022-10-04T18:41:54.238Z,15.77
2022-10-04T18:44:24.160Z,15.72
2022-10-04T18:46:57.096Z,15.67
2022-10-04T18:49:27.738Z,15.67
2022-10-04T18:52:12.294Z,15.68
2022-10-04T18:55:06.880Z,15.69
2022-10-04T18:57:59.593Z,15.65
2022-10-04T19:00:59.603Z,15.62
2022-10-04T19:03:53.305Z,15.67
2022-10-04T19:06:26.493Z,15.68
2022-10-04T19:09:10.574Z,15.82
2022-10-04T19:11:55.387Z,15.88
2022-10-04T19:14:46.238Z,15.96
2022-10-04T19:17:21.694Z,15.92
2022-10-04T19:20:22.037Z,15.85
2022-10-04T19:23:28.065Z,15.83
2022-10-04T19:26:32.272Z,15.84
2022-10-04T19:29:28.492Z,15.80
2022-10-04T19:32:05.933Z,15.80
2022-10-04T19:34:41.928Z,15.79
2022-10-04T19:37:15.214Z,15.79
2022-10-04T19:39:58.568Z,15.77
2022-10-04T19:42:33.351Z,15.74
2022-10-04T19:45:12.999Z,15.73
2022-10-04T19:47:51.039Z,15.79
2022-10-04T19:50:21.357Z,15.87
2022-10-04T19:52:55.224Z,15.83
2022-10-04T19:55:29.555Z,15.84
2022-10-04T19:58:20.102Z,15.81
2022-10-04T20:00:48.278Z,15.78
2022-10-04T20:03:15.086Z,15.78
2022-10-04T20:05:50.000Z,15.75
2022-10-04T20:09:01.963Z,15.72
2022-10-04T20:11:38.793Z,15.72
2022-10-04T20:14:07.138Z,15.71
2022-10-04T20:16:49.263Z,15.70
2022-10-04T20:19:40.396Z,15.68
2022-10-04T20:22:12.844Z,15.70
2022-10-04T20:24:39.373Z,15.73
2022-10-04T20:27:27.057Z,15.73
2022-10-04T20:30:01.618Z,15.76
2022-10-04T20:32:29.885Z,15.79
2022-10-04T20:34:57.924Z,15.78
2022-10-04T20:38:02.929Z,15.74
2022-10-04T20:40:40.144Z,15.71
2022-10-04T20:43:15.939Z,15.67
2022-10-04T20:45:47.637Z,15.63
2022-10-04T20:48:20.234Z,15.58
2022-10-04T20:50:49.716Z,15.57
2022-10-04T20:53:26.869Z,15.55
2022-10-04T20:56:17.319Z,15.57
2022-10-04T20:58:44.097Z,15.56
2022-10-04T21:01:35.882Z,15.62
2022-10-04T21:04:33.822Z,15.65
2022-10-04T21:07:07.865Z,15.71
2022-10-04T21:09:36.890Z,15.73
2022-10-04T21:12:05.210Z,15.77
2022-10-04T21:14:33.606Z,15.78
2022-10-04T21:17:03.077Z,15.82
2022-10-04T21:19:29.939Z,15.86
2022-10-04T21:21:57.749Z,15.86
2022-10-04T21:24:27.534Z,15.86
2022-10-04T21:26:57.994Z,15.80
2022-10-04T21:29:24.505Z,15.74
2022-10-04T21:31:51.202Z,15.70
2022-10-04T21:34:34.782Z,15.66
2022-10-04T21:37:04.235Z,15.71
2022-10-04T21:39:31.057Z,15.73
2022-10-04T21:41:57.545Z,15.73
2022-10-04T21:44:24.044Z,15.69
2022-10-04T21:46:50.570Z,15.72
2022-10-04T21:49:17.040Z,15.70
2022-10-04T21:51:43.552Z,15.75
2022-10-04T21:54:10.256Z,15.77
2022-10-04T21:56:36.735Z,15.81
2022-10-04T21:59:03.309Z,15.83
2022-10-04T22:01:29.866Z,15.81
2022-10-04T22:03:56.474Z,15.79
2022-10-04T22:06:22.999Z,15.82
2022-10-04T22:08:49.726Z,15.83
2022-10-04T22:11:16.370Z,15.81
2022-10-04T22:13:42.960Z,15.74
2022-10-04T22:16:09.541Z,15.72
2022-10-04T22:18:36.166Z,15.71
2022-10-04T22:21:03.008Z,15.69
2022-10-04T22:23:41.065Z,15.68
2022-10-04T22:26:19.590Z,15.67
2022-10-04T22:28:51.500Z,15.66
2022-10-04T22:31:25.032Z,15.63
2022-10-04T22:33:52.403Z,15.61
2022-10-04T22:36:32.600Z,15.62
2022-10-04T22:39:04.589Z,15.57
2022-10-04T22:41:34.096Z,15.54
2022-10-04T22:44:17.994Z,15.52
2022-10-04T22:46:48.579Z,15.55
2022-10-04T22:49:21.356Z,15.51
2022-10-04T22:51:50.372Z,15.53
2022-10-04T22:54:31.297Z,15.49
2022-10-04T22:56:58.891Z,15.46
2022-10-04T22:59:39.150Z,15.41
2022-10-04T23:02:31.938Z,15.40
2022-10-04T23:05:09.470Z,15.37
2022-10-04T23:07:38.342Z,15.39
2022-10-04T23:10:06.105Z,15.40
2022-10-04T23:12:32.623Z,15.39
2022-10-04T23:15:00.903Z,15.36
2022-10-04T23:17:34.448Z,15.34
2022-10-04T23:20:06.842Z,15.35
2022-10-04T23:22:33.430Z,15.33
2022-10-04T23:25:00.217Z,15.33
2022-10-04T23:27:26.805Z,15.34
2022-10-04T23:30:02.646Z,15.32
2022-10-04T23:32:31.851Z,15.31
2022-10-04T23:35:00.935Z,15.27
2022-10-04T23:37:31.104Z,15.26
2022-10-04T23:39:57.665Z,15.22
2022-10-04T23:42:32.282Z,15.24
2022-10-04T23:45:00.180Z,15.23
2022-10-04T23:47:35.565Z,15.21
2022-10-04T23:50:07.286Z,15.20
2022-10-04T23:52:39.768Z,15.22
2022-10-04T23:55:22.316Z,15.22
2022-10-04T23:57:49.639Z,15.20
